To NAV CANADA Home Page Login to a new session Search on AWWS site Feedback and Comments Disclaimer Vers la page française équivalente Tips FAQ What's new on the site To the Forecasts and Observations / NOTAM section To "File a Flight Plan" website Publications and other links Update of the User's profile FIC Telephone Numbers My Weather Data Folder Route Weather Data Regional Weather Data Local Weather Data To the Forecasts and Observations / NOTAM section
Request Generated 07/31/2015 at 17:22:58 UTC . Weather information available at that time is displayed.

METAR/TAF

ST. ANTHONY/NL    (show WxCam)

SPECI CYAY 311717Z AUTO 11014KT 9SM SCT011 13/11 A2990 RMK SLP126=
METAR CYAY 311700Z AUTO 11013G18KT 9SM OVC011 13/10 A2990 RMK SLP126=
SPECI CYAY 311615Z AUTO 10013KT 9SM OVC011 13/10 A2992 RMK SLP132=
METAR CYAY 311600Z AUTO 11011G16KT 9SM OVC009 13/10 A2992 RMK SLP134=
SPECI CYAY 311551Z AUTO 11012KT 9SM OVC009 12/10 A2993 RMK SLP135=
SPECI CYAY 311547Z AUTO 11012KT 9SM BKN007 OVC011 12/10 A2992 RMK
SLP134=
SPECI CYAY 311545Z AUTO 12012KT 9SM OVC009 13/10 A2993 RMK SLP135=
SPECI CYAY 311522Z AUTO 11011G17KT 9SM OVC007 12/10 A2993 RMK SLP136=
SPECI CYAY 311508Z AUTO 11013KT 9SM OVC009 12/10 A2993 RMK SLP137=
METAR CYAY 311500Z AUTO 11013KT 9SM OVC007 12/10 A2993 RMK SLP136=

TAF AMD CYAY 311519Z 3115/0102 11015KT P6SM OVC009 TEMPO 3115/3117
BKN012
FM311700 13012G22KT P6SM BKN015 TEMPO 3117/3124 SCT015
FM010000 14015KT 6SM BR SCT004 OVC010
RMK FCST BASED ON AUTO OBS. NXT FCST BY 312000Z=
Your time UTC time
Weather data provided by Environment Canada and NAV CANADA